| Date | Time | Temp. (oF) | Dew Point (oF) | Rel. Hum. (%) | Press. (in.) | Wind Dir. | Wind Speed (mph) | Hourly Rainfall (in.) |
|
|---|---|---|---|---|---|---|---|---|---|
| 1 | 12/21 | 00:00 | 27 | 18 | 70 | 29.98 | W | 3 | 0.00 |
| 2 | 12/20 | 23:00 | 27 | 18 | 69 | 29.98 | W | 6 | 0.00 |
| 3 | 12/20 | 22:00 | 28 | 18 | 68 | 29.98 | W | 4 | 0.00 |
| 4 | 12/20 | 21:00 | 28 | 18 | 68 | 29.97 | NW | 6 | 0.00 |
| 5 | 12/20 | 20:00 | 29 | 19 | 68 | 29.97 | NW | 9 | 0.00 |
| 6 | 12/20 | 19:00 | 29 | 19 | 66 | 29.94 | NNW | 4 | 0.00 |
| 7 | 12/20 | 18:00 | 29 | 17 | 63 | 29.92 | NNW | 3 | 0.00 |
| 8 | 12/20 | 17:00 | 31 | 18 | 60 | 29.90 | NW | 6 | 0.00 |
| 9 | 12/20 | 16:00 | 32 | 19 | 59 | 29.88 | NW | 8 | 0.00 |
| 10 | 12/20 | 15:00 | 33 | 20 | 60 | 29.86 | NNW | 7 | 0.00 |
| 11 | 12/20 | 14:00 | 33 | 22 | 66 | 29.83 | N | 5 | 0.00 |
| 12 | 12/20 | 13:00 | 31 | 25 | 79 | 29.84 | NNW | 4 | 0.00 |
| 13 | 12/20 | 12:00 | 28 | 24 | 87 | 29.86 | NNW | 7 | 0.00 |
| 14 | 12/20 | 11:00 | 28 | 25 | 92 | 29.87 | WNW | 11 | 0.00 |
| 15 | 12/20 | 10:00 | 27 | 25 | 95 | 29.86 | NNW | 8 | 0.00 |
| 16 | 12/20 | 09:00 | 24 | 23 | 99 | 29.85 | NNW | 4 | 0.00 |
| 17 | 12/20 | 08:00 | 22 | 22 | 100 | 29.82 | NW | 7 | 0.00 |
| 18 | 12/20 | 07:00 | 23 | 23 | 100 | 29.80 | NW | 4 | 0.00 |
| 19 | 12/20 | 06:00 | 23 | 23 | 100 | 29.78 | NW | 4 | 0.00 |
| 20 | 12/20 | 05:00 | 21 | 21 | 100 | 29.77 | WNW | 2 | 0.00 |
| 21 | 12/20 | 04:00 | 21 | 21 | 100 | 29.76 | WNW | 2 | 0.00 |
| 22 | 12/20 | 03:00 | 21 | 21 | 100 | 29.75 | NW | 3 | 0.00 |
| 23 | 12/20 | 02:00 | 22 | 22 | 100 | 29.73 | NNW | 5 | 0.00 |
| 24 | 12/20 | 01:00 | 22 | 22 | 100 | 29.71 | NNW | 5 | 0.00 |